Portada
METAR-TAF:

METAR-TAF

Aeropuertos :

Reus, España

Aeropuerto de Reus

latitud: 41-09N, longitud: 001-10E, altitud: 71 m

Observación

El informe se hizo hace 25 minutos, a las 08:00 UTC
Viento 3 kt con dirección variable
Temperatura 24°C
Humedad 54%
Presión 1020 hPa
Visibilidad 10 km o más
Escasas nubes a una altura de 2000 ft

METAR: LERS 280800Z VRB03KT 9999 FEW020 24/14 Q1020

Hora: 10:25 (08:25 UTC)

Pronóstico

El informe se hizo hace 6 horas y 25 minutos, a las 02:00 UTC
Pronóstico válido del 28 a las 03 UTC al 29 a las 03 UTC
Viento 3 kt con dirección variable
Visibilidad 10 km o más
Escasas nubes a una altura de 1500 ft
Evolucionando progresivamente
del 28 a las 08 UTC al 28 a las 11 UTC
Viento 10 kt del sureste
Evolucionando progresivamente
del 28 a las 18 UTC al 28 a las 20 UTC
Viento 3 kt con dirección variable

TAF: LERS 280200Z 2803/2903 VRB03KT 9999 FEW015 TX26/2813Z TN16/2806Z BECMG 2808/2811 13010KT BECMG 2818/2820 VRB03KT

Observaciones y pronósticos meteorológicos de más de 4000 aeropuertos (mensajes METAR y TAF).

Los puntos amarillos y rojos representan las estaciones disponibles.

Ponga el ratón en el punto deseado para ver el nombre de la estación.

Haga clic para ver las observaciones y los pronósticos meteorológicos.

Para cambiar el mapa : haga clic en los botones verdes con una cruz de color negro para hacer un zoom, en el botón verde con un guión para alejar o en las flechas verdes para mapas adyacentes.


METAR-TAF: